首页
METAR-TAF:

METAR-TAF

机场 :

帕尔马机场

帕爾馬, 意大利

纬度: 44-49-17N, 经度: 010-17-41E, 海拔: 50米

当前天气观测

该预报发布于1小时和3分钟前的05:54 UTC
风速5节,风向
温度 13°C
湿度 100%
气压 1017 hPa
能見度: 0200
多云层高于200英尺

METAR: LIMP 200554Z 09005KT 0200 R20/0325N FG BKN002 13/13 Q1017

时间: 08:57 (06:57 UTC)

预报

该预报发布于1小时和57分钟前的05:00 UTC
预报有效从20日的 06点(UTC)到 21日的 06点(UTC)
风速7节,风向
能見度: 3000
散云层高于1500英尺
轻雾
短暂存在
从 20日的 06点(UTC)到 20日的 08点(UTC)
能見度: 0500
多云层高于100英尺

TAF: LIMP 200500Z 2006/2106 08007KT 3000 BR SCT015 TEMPO 2006/2008 0500 FG BKN001

超过4000个机场的气象观测和天气预报(METAR&TAF报告)。

可查询的气象台以黄色和红色小点在地图上表示。

将鼠标移到小点上方,可查看气象台名称。

然后点击查看天气观测和预报。

如需切换地图:点击带黑十字的绿色按钮放大地图;点击带横线的绿色按钮缩小地图;或者点击绿色箭头查看邻近地区的地图。


METAR-TAF: